Tenakee Springs, AK (99841)

12:04 PM AKDT on July 07, 2015 (GMT -0800)
Hoonah | | Change Station
CLOSE
Current Station
Airport
Location: Hoonah,
Elevation: 0 ft
Nearby Weather Stations

Elev 0 ft 58.11 °N, 135.45 °W | Updated 8 minutes ago

Partly Cloudy
Partly Cloudy
67 °F
Feels Like 67 °F
N
6
Wind Variable Wind from East

Today
High -- | Low -- °F
--% Chance of Precip.
Yesterday
High -- | Low -- °F
Precip. -- in
4:11 AM 9:59 PM
Waning Gibbous, 62% visible
Pressure 30.10 in
Visibility 10.0 miles
Clouds Few 2600 ft
Dew Point 57 °F
Humidity 70%
Rainfall 0.00 in
Snow Depth Not available.
UV 8 out of 12
Pollen Not available.
Air Quality Not available.
Flu Activity Not available.
METAR PAOH 071956Z AUTO 09005KT 10SM FEW026 19/14 A3010 RMK AO2 TSNO T01940138 SLP192 $

More Conditions Fewer Conditions

Pressure 30.10 in
Visibility 10.0 miles
Clouds Few 2600 ft
Dew Point 57 °F
Humidity 70%
Rainfall 0.00 in
Snow Depth Not available.
UV 8 out of 12
Pollen Not available.
Air Quality Not available.
Flu Activity Not available.
METAR PAOH 071956Z AUTO 09005KT 10SM FEW026 19/14 A3010 RMK AO2 TSNO T01940138 SLP192 $

More Conditions Fewer Conditions

10-Day Weather Forecast

×

Almanac

Astronomy

Jul. 07, 2015 Rise Set
Actual Time
Civil Twilight
Nautical Twilight
Astronomical Twilight
Moon
Length of Visible Light
Length of Day
Tomorrow will be .
, % of the Moon is Illuminated

Today's Extremes

State Highs State Lows

Community

WunderPhotos

Upload Photos

1,835,884 photos uploaded!

WunderBlogs® & News

Nearby

Air Quality

  Air Quality AQ Index Pollutant
Not available.

Snow Depth

Station Depth Elevation

Earthquake Activity

City Distance Mag. Time & Date
Minimum magnitude displayed is 2.5.

Coastal Water Temperatures

Place Temperature

Stations

Nearby Weather Stations

Station Location Temp. Windchill Dew Point Humidity Wind Precip. Elev Updated Type